createdAt,value
2023-03-02T00:01:32.947Z,30.08
2023-03-02T00:04:02.979Z,34.25
2023-03-02T00:06:35.040Z,30.27
2023-03-02T00:09:04.790Z,29.27
2023-03-02T00:11:34.333Z,32.45
2023-03-02T00:14:06.378Z,33.35
2023-03-02T00:16:40.476Z,26.30
2023-03-02T00:19:09.382Z,31.38
2023-03-02T00:21:35.811Z,27.42
2023-03-02T00:24:05.146Z,28.25
2023-03-02T00:26:35.225Z,25.23
2023-03-02T00:29:02.154Z,29.60
2023-03-02T00:33:58.019Z,32.70
2023-03-02T00:36:26.994Z,27.45
2023-03-02T00:38:53.526Z,28.75
2023-03-02T00:41:27.298Z,29.50
2023-03-02T00:43:56.590Z,30.55
2023-03-02T00:46:24.331Z,33.30
2023-03-02T00:48:51.265Z,30.92
2023-03-02T00:51:18.171Z,27.38
2023-03-02T00:56:13.770Z,33.33
2023-03-02T00:58:46.238Z,30.65
2023-03-02T01:01:13.256Z,33.85
2023-03-02T01:03:46.679Z,24.17
2023-03-02T01:06:18.136Z,29.17
2023-03-02T01:08:47.339Z,31.20
2023-03-02T01:11:17.182Z,34.92
2023-03-02T01:13:46.238Z,28.23
2023-03-02T01:16:16.021Z,26.55
2023-03-02T01:18:44.925Z,28.02
2023-03-02T01:21:12.995Z,22.73
2023-03-02T01:23:42.284Z,28.00
2023-03-02T01:26:11.335Z,28.23
2023-03-02T01:28:40.359Z,28.48
2023-03-02T01:31:07.128Z,32.95
2023-03-02T01:33:36.242Z,29.77
2023-03-02T01:36:07.610Z,25.60
2023-03-02T01:38:36.908Z,28.30
2023-03-02T01:41:03.390Z,33.78
2023-03-02T01:43:29.912Z,35.88
2023-03-02T01:46:03.808Z,32.30
2023-03-02T01:48:42.410Z,36.58
2023-03-02T01:51:11.968Z,36.30
2023-03-02T01:53:38.685Z,30.10
2023-03-02T01:56:10.166Z,39.80
2023-03-02T01:58:38.801Z,32.28
2023-03-02T02:01:06.519Z,33.05
2023-03-02T02:03:32.972Z,31.70
2023-03-02T02:06:35.353Z,34.83
2023-03-02T02:09:03.616Z,33.05
2023-03-02T02:11:30.492Z,29.13
2023-03-02T02:13:58.610Z,32.33
2023-03-02T02:16:32.694Z,36.47
2023-03-02T02:19:02.718Z,36.75
2023-03-02T02:21:31.598Z,28.70
2023-03-02T02:24:18.283Z,33.90
2023-03-02T02:26:46.386Z,27.58
2023-03-02T02:29:26.469Z,30.45
2023-03-02T02:32:02.224Z,30.38
2023-03-02T02:34:38.203Z,34.05
2023-03-02T02:37:14.297Z,33.17
2023-03-02T02:39:46.094Z,29.63
2023-03-02T02:42:26.343Z,34.95
2023-03-02T02:44:55.946Z,35.72
2023-03-02T02:47:27.828Z,36.45
2023-03-02T02:49:57.212Z,36.28
2023-03-02T02:52:28.111Z,31.63
2023-03-02T02:54:58.596Z,32.75
2023-03-02T02:57:28.019Z,26.27
2023-03-02T02:59:59.239Z,30.70
2023-03-02T03:02:27.412Z,24.17
2023-03-02T03:05:03.786Z,30.60
2023-03-02T03:07:33.913Z,28.45
2023-03-02T03:10:09.647Z,23.92
2023-03-02T03:12:38.753Z,23.45
2023-03-02T03:15:06.240Z,26.92
2023-03-02T03:17:38.411Z,29.20
2023-03-02T03:20:09.292Z,30.85
2023-03-02T03:22:41.994Z,26.73
2023-03-02T03:25:15.294Z,24.33
2023-03-02T03:27:46.648Z,32.25
2023-03-02T03:30:19.000Z,27.85
2023-03-02T03:32:48.835Z,31.98
2023-03-02T03:35:16.524Z,38.70
2023-03-02T03:37:43.547Z,27.60
2023-03-02T03:40:11.489Z,35.45
2023-03-02T03:42:41.868Z,35.33
2023-03-02T03:45:11.373Z,38.33
2023-03-02T03:47:39.148Z,35.38
2023-03-02T03:50:11.464Z,43.33
2023-03-02T03:52:38.823Z,29.63
2023-03-02T03:55:13.716Z,35.10
2023-03-02T03:57:44.292Z,34.17
2023-03-02T04:00:14.998Z,37.05
2023-03-02T04:02:48.028Z,40.40
2023-03-02T04:05:17.728Z,37.80
2023-03-02T04:07:46.908Z,39.85
2023-03-02T04:10:19.044Z,38.38
2023-03-02T04:12:48.852Z,39.08
2023-03-02T04:15:18.689Z,34.20
2023-03-02T04:17:49.712Z,35.92
2023-03-02T04:20:22.313Z,35.20
2023-03-02T04:22:53.216Z,41.38
2023-03-02T04:25:21.450Z,25.95
2023-03-02T04:27:52.738Z,30.77
2023-03-02T04:30:24.461Z,33.13
2023-03-02T04:32:51.404Z,36.33
2023-03-02T04:35:22.948Z,32.10
2023-03-02T04:37:54.406Z,31.35
2023-03-02T04:40:26.147Z,33.28
2023-03-02T04:42:55.130Z,33.83
2023-03-02T04:45:21.591Z,34.22
2023-03-02T04:47:48.093Z,38.05
2023-03-02T04:50:17.324Z,33.25
2023-03-02T04:52:46.399Z,32.80
2023-03-02T04:55:19.782Z,34.17
2023-03-02T04:57:49.187Z,36.17
2023-03-02T05:00:18.197Z,36.60
2023-03-02T05:02:47.182Z,35.85
2023-03-02T05:05:18.555Z,33.72
2023-03-02T05:07:45.479Z,36.25
2023-03-02T05:10:17.228Z,36.75
2023-03-02T05:12:57.918Z,39.25
2023-03-02T05:15:25.945Z,34.70
2023-03-02T05:17:54.801Z,39.20
2023-03-02T05:20:27.714Z,41.53
2023-03-02T05:22:59.766Z,42.92
2023-03-02T05:25:27.210Z,57.67
2023-03-02T05:27:53.870Z,43.03
2023-03-02T05:30:22.693Z,46.10
2023-03-02T05:32:49.907Z,44.60
2023-03-02T05:35:16.569Z,45.25
2023-03-02T05:37:45.517Z,45.97
2023-03-02T05:40:17.244Z,47.05
2023-03-02T05:42:46.236Z,43.70
2023-03-02T05:45:18.834Z,33.35
2023-03-02T05:47:47.920Z,36.20
2023-03-02T05:50:17.165Z,48.88
2023-03-02T05:52:45.426Z,56.67
2023-03-02T05:55:14.813Z,50.53
2023-03-02T05:57:46.845Z,38.97
2023-03-02T06:00:13.674Z,40.05
2023-03-02T06:02:47.831Z,40.97
2023-03-02T06:05:15.890Z,36.17
2023-03-02T06:07:45.209Z,43.33
2023-03-02T06:10:14.311Z,36.15
2023-03-02T06:15:07.770Z,35.50
2023-03-02T06:17:36.640Z,36.88
2023-03-02T06:20:06.213Z,32.92
2023-03-02T06:22:32.757Z,36.33
2023-03-02T06:24:59.241Z,32.47
2023-03-02T06:27:25.740Z,38.25
2023-03-02T06:29:53.247Z,38.28
2023-03-02T06:32:24.259Z,32.17
2023-03-02T06:34:50.774Z,38.95
2023-03-02T06:37:17.212Z,34.47
2023-03-02T06:39:43.662Z,32.08
2023-03-02T06:42:15.187Z,39.20
2023-03-02T06:44:47.059Z,35.13
2023-03-02T06:47:13.637Z,30.45
2023-03-02T06:49:42.413Z,36.22
2023-03-02T06:52:13.585Z,36.30
2023-03-02T06:54:43.041Z,31.73
2023-03-02T06:57:11.976Z,34.75
2023-03-02T06:59:38.420Z,34.50
2023-03-02T07:02:07.010Z,33.10
2023-03-02T07:04:33.578Z,37.95
2023-03-02T07:07:02.327Z,36.55
2023-03-02T07:09:30.870Z,36.47
2023-03-02T07:11:59.522Z,35.50
2023-03-02T07:14:25.981Z,33.78
2023-03-02T07:16:57.582Z,37.55
2023-03-02T07:19:24.432Z,36.78
2023-03-02T07:21:55.599Z,38.45
2023-03-02T07:24:24.632Z,36.65
2023-03-02T07:26:51.161Z,35.42
2023-03-02T07:29:17.624Z,36.35
2023-03-02T07:31:46.160Z,36.97
2023-03-02T07:34:12.759Z,32.65
2023-03-02T07:36:41.570Z,41.95
2023-03-02T07:39:08.040Z,41.05
2023-03-02T07:41:35.067Z,38.80
2023-03-02T07:44:04.028Z,38.60
2023-03-02T07:46:32.821Z,39.50
2023-03-02T07:48:59.728Z,35.88
2023-03-02T07:53:52.731Z,34.63
2023-03-02T07:56:20.427Z,38.70
2023-03-02T07:58:51.870Z,35.10
2023-03-02T08:01:20.477Z,36.70
2023-03-02T08:03:47.035Z,41.45
2023-03-02T08:06:17.374Z,41.33
2023-03-02T08:08:46.274Z,38.97
2023-03-02T08:11:14.529Z,39.55
2023-03-02T08:13:44.005Z,40.55
2023-03-02T08:16:11.206Z,31.10
2023-03-02T08:18:41.093Z,30.98
2023-03-02T08:21:14.989Z,36.28
2023-03-02T08:23:44.800Z,34.22
2023-03-02T08:26:14.324Z,38.17
2023-03-02T08:28:42.300Z,36.50
2023-03-02T08:31:11.760Z,39.10
2023-03-02T08:33:38.294Z,37.35
2023-03-02T08:36:08.265Z,37.78
2023-03-02T08:38:37.409Z,35.47
2023-03-02T08:41:08.715Z,36.60
2023-03-02T08:43:37.768Z,32.75
2023-03-02T08:46:04.902Z,34.60
2023-03-02T08:48:31.426Z,43.40
2023-03-02T08:51:01.571Z,39.00
2023-03-02T08:53:35.187Z,34.63
2023-03-02T08:56:01.996Z,38.13
2023-03-02T08:58:28.577Z,39.05
2023-03-02T09:00:59.968Z,41.60
2023-03-02T09:03:26.500Z,41.50
2023-03-02T09:05:53.005Z,41.65
2023-03-02T09:08:23.645Z,38.95
2023-03-02T09:10:50.115Z,36.70
2023-03-02T09:13:18.927Z,38.38
2023-03-02T09:15:47.868Z,37.97
2023-03-02T09:18:17.197Z,38.25
2023-03-02T09:20:49.467Z,41.33
2023-03-02T09:23:18.451Z,41.00
2023-03-02T09:25:48.757Z,46.65
2023-03-02T09:28:16.265Z,42.08
2023-03-02T09:30:47.801Z,44.10
2023-03-02T09:33:19.178Z,42.25
2023-03-02T09:35:46.839Z,42.80
2023-03-02T09:38:18.470Z,34.85
2023-03-02T09:41:07.141Z,38.08
2023-03-02T09:43:59.944Z,40.83
2023-03-02T09:46:32.654Z,37.17
2023-03-02T09:49:18.165Z,42.45
2023-03-02T09:52:05.001Z,36.05
2023-03-02T09:54:33.978Z,39.45
2023-03-02T09:57:01.976Z,39.17
2023-03-02T09:59:39.549Z,34.72
2023-03-02T10:02:30.362Z,38.33
2023-03-02T10:05:00.753Z,38.17
2023-03-02T10:07:31.165Z,44.85
2023-03-02T10:10:03.681Z,37.85
2023-03-02T10:12:32.560Z,34.70
2023-03-02T10:15:05.444Z,31.30
2023-03-02T10:17:36.779Z,34.13
2023-03-02T10:20:14.551Z,38.83
2023-03-02T10:22:50.391Z,40.20
2023-03-02T10:25:19.288Z,38.83
2023-03-02T10:28:14.496Z,40.83
2023-03-02T10:30:41.275Z,33.17
2023-03-02T10:35:45.235Z,34.40
2023-03-02T10:38:18.700Z,34.92
2023-03-02T10:40:59.766Z,38.88
2023-03-02T10:43:26.259Z,31.58
2023-03-02T10:46:00.353Z,35.70
2023-03-02T10:48:32.230Z,43.85
2023-03-02T10:51:00.912Z,38.00
2023-03-02T10:53:29.006Z,38.97
2023-03-02T10:55:55.642Z,43.05
2023-03-02T10:58:32.380Z,36.92
2023-03-02T11:01:05.050Z,40.80
2023-03-02T11:03:35.002Z,45.25
2023-03-02T11:06:17.282Z,40.25
2023-03-02T11:08:43.798Z,44.03
2023-03-02T11:11:21.746Z,41.15
2023-03-02T11:13:48.380Z,39.67
2023-03-02T11:16:17.929Z,43.22
2023-03-02T11:18:47.247Z,42.65
2023-03-02T11:21:17.421Z,43.75
2023-03-02T11:23:58.581Z,36.70
2023-03-02T11:26:39.529Z,40.47
2023-03-02T11:29:22.580Z,35.45
2023-03-02T11:31:53.304Z,38.08
2023-03-02T11:34:22.451Z,40.58
2023-03-02T11:37:06.059Z,46.72
2023-03-02T11:39:55.822Z,43.05
2023-03-02T11:42:28.555Z,43.88
2023-03-02T11:44:58.514Z,38.90
2023-03-02T11:47:27.507Z,35.38
2023-03-02T11:49:59.044Z,40.58
2023-03-02T11:52:30.236Z,41.03
2023-03-02T11:55:23.211Z,40.38
2023-03-02T11:57:53.211Z,37.38
2023-03-02T12:00:22.211Z,42.92
2023-03-02T12:03:07.806Z,44.30
2023-03-02T12:05:35.809Z,44.50
2023-03-02T12:08:04.963Z,34.83
2023-03-02T12:10:31.581Z,42.22
2023-03-02T12:13:13.210Z,45.47
2023-03-02T12:15:48.268Z,40.25
2023-03-02T12:18:25.121Z,41.75
2023-03-02T12:21:03.017Z,42.15
2023-03-02T12:23:30.280Z,45.10
2023-03-02T12:26:02.983Z,42.33
2023-03-02T12:28:37.146Z,40.03
2023-03-02T12:31:12.420Z,41.75
2023-03-02T12:33:49.510Z,40.95
2023-03-02T12:36:21.461Z,41.97
2023-03-02T12:39:00.919Z,43.28
2023-03-02T12:41:43.160Z,38.15
2023-03-02T12:44:16.877Z,39.08
2023-03-02T12:46:47.394Z,43.22
2023-03-02T12:51:57.672Z,41.67
2023-03-02T12:54:30.180Z,39.25
2023-03-02T12:57:06.838Z,42.60
2023-03-02T12:59:33.369Z,40.10
2023-03-02T13:02:28.709Z,39.72
2023-03-02T13:05:01.215Z,38.58
2023-03-02T13:07:37.172Z,37.88
2023-03-02T13:10:09.803Z,46.90
2023-03-02T13:12:36.745Z,48.33
2023-03-02T13:15:13.774Z,48.92
2023-03-02T13:17:40.246Z,50.10
2023-03-02T13:20:07.022Z,43.42
2023-03-02T13:22:33.706Z,40.28
2023-03-02T13:25:08.010Z,39.95
2023-03-02T13:27:37.586Z,49.25
2023-03-02T13:30:11.700Z,45.20
2023-03-02T13:32:43.155Z,42.90
2023-03-02T13:35:19.840Z,41.67
2023-03-02T13:37:55.172Z,36.20
2023-03-02T13:40:24.326Z,43.33
2023-03-02T13:42:51.293Z,39.70
2023-03-02T13:45:23.715Z,37.42
2023-03-02T13:47:50.454Z,40.92
2023-03-02T13:50:18.178Z,39.13
2023-03-02T13:52:44.936Z,41.70
2023-03-02T13:57:41.668Z,38.03
2023-03-02T14:00:13.945Z,41.72
2023-03-02T14:02:41.005Z,36.53
2023-03-02T14:05:09.938Z,39.33
2023-03-02T14:07:36.508Z,39.50
2023-03-02T14:10:05.378Z,37.22
2023-03-02T14:12:33.601Z,37.70
2023-03-02T14:15:01.812Z,43.33
2023-03-02T14:17:30.724Z,41.80
2023-03-02T14:19:57.431Z,43.88
2023-03-02T14:22:27.163Z,39.80
2023-03-02T14:24:56.047Z,44.25
2023-03-02T14:27:31.834Z,39.83
2023-03-02T14:30:00.871Z,39.03
2023-03-02T14:32:29.822Z,35.97
2023-03-02T14:35:01.613Z,41.67
2023-03-02T14:37:33.043Z,38.53
2023-03-02T14:39:59.703Z,38.63
2023-03-02T14:42:26.172Z,37.40
2023-03-02T14:44:52.727Z,46.58
2023-03-02T14:47:21.980Z,42.45
2023-03-02T14:49:49.464Z,41.13
2023-03-02T14:52:30.528Z,41.67
2023-03-02T14:55:01.545Z,50.97
2023-03-02T14:57:36.060Z,59.90
2023-03-02T15:00:06.372Z,59.50
2023-03-02T15:02:37.781Z,65.80
2023-03-02T15:05:06.620Z,38.65
2023-03-02T15:07:33.122Z,49.40
2023-03-02T15:09:59.674Z,45.58
2023-03-02T15:12:26.225Z,45.25
2023-03-02T15:14:52.932Z,38.58
2023-03-02T15:17:19.830Z,42.33
2023-03-02T15:19:49.011Z,42.80
2023-03-02T15:22:15.998Z,42.17
2023-03-02T15:24:44.864Z,39.75
2023-03-02T15:27:11.487Z,38.30
2023-03-02T15:29:40.312Z,45.17
2023-03-02T15:32:09.313Z,46.47
2023-03-02T15:34:38.278Z,40.17
2023-03-02T15:37:04.849Z,40.50
2023-03-02T15:39:34.079Z,40.08
2023-03-02T15:42:05.293Z,42.05
2023-03-02T15:44:34.319Z,43.17
2023-03-02T15:47:01.028Z,47.90
2023-03-02T15:51:57.473Z,35.45
2023-03-02T15:54:27.536Z,40.50
2023-03-02T15:56:54.177Z,46.10
2023-03-02T15:59:23.986Z,49.72
2023-03-02T16:01:59.260Z,39.67
2023-03-02T16:04:29.448Z,47.25
2023-03-02T16:06:58.951Z,51.05
2023-03-02T16:09:33.541Z,45.60
2023-03-02T16:12:00.090Z,50.92
2023-03-02T16:14:26.721Z,47.53
2023-03-02T16:16:58.304Z,45.55
2023-03-02T16:19:27.271Z,61.75
2023-03-02T16:21:53.793Z,51.15
2023-03-02T16:24:20.362Z,41.60
2023-03-02T16:26:50.914Z,50.33
2023-03-02T16:29:17.399Z,50.17
2023-03-02T16:31:45.837Z,48.67
2023-03-02T16:34:12.836Z,48.28
2023-03-02T16:36:40.256Z,51.58
2023-03-02T16:39:12.116Z,57.55
2023-03-02T16:41:43.782Z,45.45
2023-03-02T16:44:10.654Z,58.13
2023-03-02T16:46:39.226Z,58.00
2023-03-02T16:49:12.387Z,54.60
2023-03-02T16:51:41.581Z,50.05
2023-03-02T16:54:10.528Z,49.90
2023-03-02T16:56:37.078Z,44.40
2023-03-02T16:59:03.526Z,50.72
2023-03-02T17:01:30.165Z,50.80
2023-03-02T17:03:58.926Z,49.33
2023-03-02T17:06:25.428Z,47.05
2023-03-02T17:08:54.432Z,50.80
2023-03-02T17:11:23.978Z,50.58
2023-03-02T17:13:50.496Z,45.55
2023-03-02T17:16:22.474Z,49.92
2023-03-02T17:18:49.163Z,53.80
2023-03-02T17:23:47.967Z,48.38
2023-03-02T17:26:21.602Z,46.17
2023-03-02T17:28:50.253Z,47.42
2023-03-02T17:31:16.837Z,52.78
2023-03-02T17:33:45.763Z,48.33
2023-03-02T17:36:16.927Z,47.42
2023-03-02T17:38:45.595Z,51.00
2023-03-02T17:41:12.178Z,46.15
2023-03-02T17:43:39.410Z,43.85
2023-03-02T17:46:16.908Z,51.22
2023-03-02T17:48:46.774Z,49.35
2023-03-02T17:51:19.119Z,49.97
2023-03-02T17:53:46.583Z,57.78
2023-03-02T17:56:18.867Z,39.80
2023-03-02T17:58:46.017Z,47.83
2023-03-02T18:01:13.258Z,49.10
2023-03-02T18:03:45.083Z,49.20
2023-03-02T18:06:11.778Z,60.22
2023-03-02T18:08:38.204Z,50.78
2023-03-02T18:11:07.242Z,49.00
2023-03-02T18:13:33.687Z,45.53
2023-03-02T18:16:00.256Z,53.88
2023-03-02T18:18:29.442Z,43.78
2023-03-02T18:20:55.923Z,51.00
2023-03-02T18:23:27.303Z,50.97
2023-03-02T18:25:53.908Z,50.15
2023-03-02T18:28:24.961Z,46.05
2023-03-02T18:30:51.627Z,43.20
2023-03-02T18:33:18.076Z,49.33
2023-03-02T18:35:46.668Z,47.63
2023-03-02T18:38:17.302Z,48.35
2023-03-02T18:40:48.416Z,50.58
2023-03-02T18:43:17.390Z,47.70
2023-03-02T18:45:43.834Z,51.83
2023-03-02T18:48:12.325Z,51.67
2023-03-02T18:50:41.298Z,48.60
2023-03-02T18:53:13.038Z,51.67
2023-03-02T18:55:40.443Z,51.92
2023-03-02T18:58:16.156Z,47.33
2023-03-02T19:00:45.876Z,55.33
2023-03-02T19:03:13.193Z,47.17
2023-03-02T19:05:39.667Z,50.90
2023-03-02T19:08:08.738Z,52.90
2023-03-02T19:10:42.354Z,51.60
2023-03-02T19:13:11.498Z,51.03
2023-03-02T19:15:41.777Z,53.88
2023-03-02T19:18:10.656Z,48.25
2023-03-02T19:20:39.697Z,41.53
2023-03-02T19:23:10.899Z,48.75
2023-03-02T19:25:39.950Z,49.42
2023-03-02T19:28:09.537Z,47.72
2023-03-02T19:30:36.785Z,55.13
2023-03-02T19:33:05.963Z,41.58
2023-03-02T19:35:32.538Z,36.78
2023-03-02T19:37:59.098Z,46.97
2023-03-02T19:40:28.309Z,45.88
2023-03-02T19:43:00.414Z,35.00
2023-03-02T19:45:31.240Z,41.92
2023-03-02T19:50:32.033Z,41.83
2023-03-02T19:53:01.531Z,49.72
2023-03-02T19:55:30.396Z,47.95
2023-03-02T19:58:02.612Z,40.75
2023-03-02T20:00:32.476Z,40.70
2023-03-02T20:03:01.731Z,38.78
2023-03-02T20:05:33.181Z,44.00
2023-03-02T20:08:06.491Z,41.75
2023-03-02T20:10:37.608Z,41.30
2023-03-02T20:13:09.575Z,40.63
2023-03-02T20:15:39.940Z,40.33
2023-03-02T20:18:12.926Z,35.20
2023-03-02T20:20:42.804Z,41.47
2023-03-02T20:23:14.157Z,45.65
2023-03-02T20:25:40.681Z,41.70
2023-03-02T20:28:11.779Z,48.17
2023-03-02T20:30:51.668Z,41.03
2023-03-02T20:33:20.210Z,40.35
2023-03-02T20:35:52.297Z,41.30
2023-03-02T20:38:29.327Z,38.17
2023-03-02T20:41:03.055Z,41.70
2023-03-02T20:43:32.248Z,43.38
2023-03-02T20:45:59.530Z,39.97
2023-03-02T20:48:28.368Z,40.83
2023-03-02T20:50:54.870Z,37.72
2023-03-02T20:53:25.960Z,34.42
2023-03-02T20:55:54.847Z,26.90
2023-03-02T20:58:24.010Z,35.78
2023-03-02T21:00:53.806Z,33.47
2023-03-02T21:03:20.299Z,32.60
2023-03-02T21:05:51.516Z,37.25
2023-03-02T21:08:17.981Z,35.05
2023-03-02T21:10:47.763Z,36.88
2023-03-02T21:13:19.456Z,34.03
2023-03-02T21:15:46.359Z,40.25
2023-03-02T21:18:15.077Z,36.67
2023-03-02T21:20:44.003Z,34.45
2023-03-02T21:23:13.057Z,38.60
2023-03-02T21:25:42.143Z,39.08
2023-03-02T21:28:11.405Z,44.97
2023-03-02T21:30:40.592Z,34.60
2023-03-02T21:33:07.271Z,35.70
2023-03-02T21:35:38.401Z,36.53
2023-03-02T21:38:05.386Z,32.45
2023-03-02T21:40:37.619Z,37.45
2023-03-02T21:43:06.675Z,41.67
2023-03-02T21:45:33.458Z,45.75
2023-03-02T21:50:30.797Z,36.55
2023-03-02T21:55:31.114Z,36.03
2023-03-02T21:58:00.495Z,35.38
2023-03-02T22:00:26.967Z,42.85
2023-03-02T22:02:58.502Z,43.97
2023-03-02T22:05:25.200Z,38.78
2023-03-02T22:07:54.610Z,36.70
2023-03-02T22:10:35.061Z,36.72
2023-03-02T22:13:06.524Z,43.88
2023-03-02T22:15:37.573Z,41.70
2023-03-02T22:18:20.466Z,40.67
2023-03-02T22:20:48.252Z,37.63
2023-03-02T22:23:19.194Z,37.65
2023-03-02T22:25:52.618Z,37.70
2023-03-02T22:28:19.088Z,41.78
2023-03-02T22:30:47.916Z,42.70
2023-03-02T22:33:19.806Z,33.30
2023-03-02T22:35:47.182Z,38.33
2023-03-02T22:38:23.954Z,38.58
2023-03-02T22:40:53.717Z,32.40
2023-03-02T22:43:26.105Z,41.42
2023-03-02T22:45:58.995Z,41.72
2023-03-02T22:48:32.544Z,35.60
2023-03-02T22:50:59.151Z,37.45
2023-03-02T22:53:30.276Z,36.47
2023-03-02T22:55:57.936Z,35.75
2023-03-02T22:58:27.407Z,36.70
2023-03-02T23:00:56.046Z,37.00
2023-03-02T23:03:41.321Z,34.80
2023-03-02T23:06:19.194Z,31.00
2023-03-02T23:08:45.621Z,29.75
2023-03-02T23:11:14.576Z,32.03
2023-03-02T23:13:43.424Z,32.85
2023-03-02T23:16:15.260Z,28.48
2023-03-02T23:18:44.379Z,26.20
2023-03-02T23:21:37.498Z,29.70
2023-03-02T23:24:08.895Z,25.15
2023-03-02T23:26:40.405Z,28.48
2023-03-02T23:29:06.989Z,25.20
2023-03-02T23:31:33.703Z,31.67
2023-03-02T23:34:02.510Z,29.50
2023-03-02T23:36:32.044Z,32.95
2023-03-02T23:39:01.040Z,33.33
2023-03-02T23:41:32.121Z,36.63
2023-03-02T23:44:01.061Z,27.80
2023-03-02T23:46:30.265Z,35.10
2023-03-02T23:48:59.130Z,35.90
2023-03-02T23:51:28.024Z,34.45
2023-03-02T23:53:57.122Z,29.88
2023-03-02T23:56:23.663Z,32.53
2023-03-02T23:58:52.521Z,25.88
